Time;durP1;ratioP1;P1;durP2;ratioP2;P2;SDS_P1;SDS_P2;PMS_P1;PMS_P2;Temp;Humidity;BMP_temperature;BMP_pressure;BME280_temperature;BME280_humidity;BME280_pressure;Samples;Min_cycle;Max_cycle;Signal;HPM_P1;HPM_P2
2022/02/15 00:00:51;;;;;;;38.60;25.13;;;;;;;8.53;48.81;95566.38;4952986;29;20694;-73
2022/02/15 00:03:18;;;;;;;39.22;26.00;;;;;;;8.32;49.22;95561.66;4953357;29;20738;-74
2022/02/15 00:05:45;;;;;;;39.30;25.88;;;;;;;8.32;49.04;95566.88;4953785;29;20287;-76
2022/02/15 00:08:12;;;;;;;38.35;24.92;;;;;;;8.04;49.51;95557.06;4953517;29;20200;-74
2022/02/15 00:10:40;;;;;;;37.88;25.23;;;;;;;8.13;49.13;95560.13;4952791;29;20212;-74
2022/02/15 00:13:07;;;;;;;42.13;26.35;;;;;;;7.64;50.64;95568.25;4928045;29;20245;-75
2022/02/15 00:15:34;;;;;;;39.58;26.85;;;;;;;8.14;49.33;95551.28;4917731;29;20225;-74
2022/02/15 00:18:00;;;;;;;43.47;27.50;;;;;;;7.65;51.01;95570.63;4917698;29;20268;-75
2022/02/15 00:20:28;;;;;;;39.47;27.58;;;;;;;7.75;50.12;95560.50;4915232;29;20216;-76
2022/02/15 00:22:55;;;;;;;41.33;26.83;;;;;;;7.89;49.58;95563.69;4914993;29;20204;-73
2022/02/15 00:25:22;;;;;;;40.00;27.42;;;;;;;8.01;49.18;95560.09;4914567;29;20201;-72
2022/02/15 00:27:50;;;;;;;44.13;28.00;;;;;;;8.07;49.08;95558.41;4914895;29;20693;-74
2022/02/15 00:30:17;;;;;;;42.15;29.17;;;;;;;7.98;48.84;95541.47;4915032;29;20197;-73
2022/02/15 00:32:44;;;;;;;44.35;29.80;;;;;;;8.02;48.64;95547.84;4913638;29;20197;-76
2022/02/15 00:35:12;;;;;;;43.42;28.98;;;;;;;8.09;48.14;95556.38;4914560;29;20213;-79
2022/02/15 00:37:42;;;;;;;41.65;27.38;;;;;;;8.12;48.18;95554.13;4915176;29;20208;-76
2022/02/15 00:40:10;;;;;;;40.42;27.15;;;;;;;8.15;47.96;95558.09;4928923;29;20687;-76
2022/02/15 00:42:39;;;;;;;41.90;26.98;;;;;;;8.01;48.21;95561.94;4915056;29;20192;-76
2022/02/15 00:45:07;;;;;;;42.22;26.13;;;;;;;8.03;48.91;95559.88;4915058;29;20268;-76
2022/02/15 00:47:36;;;;;;;41.75;27.90;;;;;;;7.93;48.95;95554.41;4928120;29;20228;-74
2022/02/15 00:50:04;;;;;;;41.13;27.33;;;;;;;8.00;49.06;95555.09;4914420;29;20676;-77
2022/02/15 00:52:30;;;;;;;44.78;28.60;;;;;;;8.08;48.94;95562.63;4914431;29;20296;-73
2022/02/15 00:54:58;;;;;;;43.22;29.02;;;;;;;8.08;48.02;95546.97;4914901;29;20225;-76
2022/02/15 00:57:25;;;;;;;45.35;29.10;;;;;;;7.81;48.36;95550.97;4915228;29;20292;-78
2022/02/15 00:59:52;;;;;;;47.90;31.55;;;;;;;7.92;47.77;95556.22;4914948;29;20208;-78
2022/02/15 01:02:20;;;;;;;53.60;32.78;;;;;;;7.89;48.19;95550.66;4914719;29;20232;-76
2022/02/15 01:04:48;;;;;;;50.88;32.13;;;;;;;7.81;48.12;95550.97;4914152;29;20212;-74
2022/02/15 01:07:15;;;;;;;59.45;36.97;;;;;;;7.45;48.60;95536.19;4912891;29;20201;-76
2022/02/15 01:09:42;;;;;;;59.08;37.03;;;;;;;7.62;48.38;95536.38;4914206;29;20197;-76
2022/02/15 01:12:09;;;;;;;67.13;41.05;;;;;;;7.48;48.09;95504.44;4912982;29;20197;-76
2022/02/15 01:14:38;;;;;;;74.00;43.90;;;;;;;7.69;48.24;95537.88;4947773;29;20235;-78
2022/02/15 01:17:05;;;;;;;72.10;42.05;;;;;;;7.41;48.70;95514.19;4934903;29;20267;-77
2022/02/15 01:19:32;;;;;;;61.08;37.45;;;;;;;7.31;48.51;95519.13;4935256;29;20654;-74
2022/02/15 01:21:59;;;;;;;62.58;37.30;;;;;;;7.33;48.76;95524.13;4952130;29;20180;-78
2022/02/15 01:24:26;;;;;;;63.50;36.50;;;;;;;7.49;48.40;95526.13;4952106;29;20196;-75
2022/02/15 01:26:53;;;;;;;58.60;36.70;;;;;;;7.33;48.83;95516.31;4935236;29;20215;-76
2022/02/15 01:29:20;;;;;;;61.38;37.35;;;;;;;7.40;48.98;95522.22;4951123;29;20196;-71
2022/02/15 01:31:47;;;;;;;60.78;38.45;;;;;;;7.40;48.96;95510.00;4934416;29;20627;-77
2022/02/15 01:34:15;;;;;;;63.33;36.38;;;;;;;7.57;48.74;95512.78;4934227;29;20318;-74
2022/02/15 01:36:42;;;;;;;58.08;36.03;;;;;;;7.47;48.44;95491.63;4934441;29;20195;-72
2022/02/15 01:39:13;;;;;;;53.47;35.17;;;;;;;7.41;48.26;95490.72;4951390;29;20199;-72
2022/02/15 01:41:40;;;;;;;56.65;34.95;;;;;;;7.22;48.67;95488.38;4934684;29;20267;-76
2022/02/15 01:44:07;;;;;;;62.70;36.10;;;;;;;7.31;48.09;95445.34;4951877;29;20585;-75
2022/02/15 01:46:38;;;;;;;65.72;37.88;;;;;;;7.48;48.31;95482.81;4950186;29;20219;-75
2022/02/15 01:49:05;;;;;;;62.35;38.22;;;;;;;6.79;51.38;95504.09;4950287;29;20203;-77
2022/02/15 01:51:33;;;;;;;59.42;37.55;;;;;;;6.78;51.12;95497.31;4950358;29;20398;-77
2022/02/15 01:54:00;;;;;;;59.30;37.15;;;;;;;6.97;50.50;95489.25;4951351;29;20188;-79
2022/02/15 01:56:28;;;;;;;62.70;36.75;;;;;;;7.37;49.58;95507.03;4933936;29;20663;-77
2022/02/15 01:58:58;;;;;;;57.25;35.50;;;;;;;7.39;49.71;95505.00;4933819;29;20262;-75
2022/02/15 02:01:25;;;;;;;60.45;36.53;;;;;;;6.43;52.36;95515.28;4934103;29;20203;-77
2022/02/15 02:05:47;;;;;;;62.85;37.58;;;;;;;7.02;50.75;95504.25;4948631;29;20679;-75
2022/02/15 02:06:58;;;;;;;61.28;37.42;;;;;;;7.33;49.75;95511.09;4951340;29;20184;-75
2022/02/15 02:09:31;;;;;;;62.28;38.30;;;;;;;7.56;48.68;95506.75;4933787;29;20204;-74
2022/02/15 02:11:59;;;;;;;63.05;36.38;;;;;;;7.77;48.42;95500.25;4951317;29;20200;-75
2022/02/15 02:14:34;;;;;;;61.65;37.17;;;;;;;7.28;49.11;95503.91;4949343;29;20235;-72
2022/02/15 02:17:02;;;;;;;58.72;36.13;;;;;;;7.07;50.00;95492.16;4933813;29;20227;-71
2022/02/15 02:19:30;;;;;;;57.42;36.28;;;;;;;7.36;49.14;95500.22;4930723;29;20204;-73
2022/02/15 02:22:01;;;;;;;57.88;35.90;;;;;;;7.10;49.44;95507.34;4934531;29;20204;-76
2022/02/15 02:24:28;;;;;;;57.55;34.60;;;;;;;6.94;50.02;95507.94;4938673;29;20596;-76
2022/02/15 02:26:56;;;;;;;58.25;37.38;;;;;;;7.00;49.58;95501.88;4938052;29;20235;-73
2022/02/15 02:29:24;;;;;;;64.57;39.00;;;;;;;6.86;50.13;95507.44;4954773;29;20207;-71
2022/02/15 02:31:50;;;;;;;62.13;38.42;;;;;;;6.90;49.64;95500.75;4955011;29;20186;-75
2022/02/15 02:34:21;;;;;;;70.68;42.13;;;;;;;6.94;50.18;95507.94;4937270;29;20713;-79
2022/02/15 02:36:50;;;;;;;74.65;44.25;;;;;;;6.73;50.64;95521.38;4937702;29;20231;-76
2022/02/15 02:39:23;;;;;;;76.35;44.30;;;;;;;6.80;51.22;95522.13;4937925;29;20210;-75
2022/02/15 02:41:52;;;;;;;69.75;40.55;;;;;;;6.76;51.07;95523.56;4937810;29;20207;-77
2022/02/15 02:44:19;;;;;;;68.53;40.83;;;;;;;6.79;50.57;95517.13;4937850;29;20242;-76
2022/02/15 02:46:48;;;;;;;67.78;40.88;;;;;;;7.07;50.06;95528.63;4937403;29;20275;-73
2022/02/15 02:49:16;;;;;;;70.70;42.15;;;;;;;7.09;50.09;95526.63;4937504;29;20203;-76
2022/02/15 02:51:43;;;;;;;69.53;41.67;;;;;;;6.92;50.49;95537.81;4953567;29;20306;-77
2022/02/15 02:54:10;;;;;;;63.83;38.75;;;;;;;7.04;50.05;95534.25;4937004;29;20200;-74
2022/02/15 02:56:46;;;;;;;59.53;37.13;;;;;;;6.92;49.76;95543.03;4936974;29;20307;-74
2022/02/15 02:59:15;;;;;;;60.95;38.20;;;;;;;6.82;49.85;95538.34;4957580;29;20210;-73
2022/02/15 03:01:42;;;;;;;61.83;37.22;;;;;;;6.61;49.77;95538.72;4953468;29;20278;-75
2022/02/15 03:04:10;;;;;;;62.95;38.03;;;;;;;6.85;49.48;95545.72;4954861;29;20683;-73
2022/02/15 03:06:37;;;;;;;62.47;38.08;;;;;;;6.86;49.16;95549.91;4937064;29;20636;-76
2022/02/15 03:09:05;;;;;;;64.05;38.47;;;;;;;6.94;48.90;95557.44;4940486;29;20208;-74
2022/02/15 03:11:32;;;;;;;66.82;40.95;;;;;;;6.57;50.40;95553.19;4940040;29;20204;-75
2022/02/15 03:14:00;;;;;;;68.78;40.67;;;;;;;6.69;50.44;95556.69;4954397;29;20671;-72
2022/02/15 03:16:35;;;;;;;72.93;41.75;;;;;;;6.39;51.05;95570.56;4937109;29;20690;-77
2022/02/15 03:19:03;;;;;;;72.68;42.72;;;;;;;6.31;51.11;95563.84;4953034;29;20258;-74
2022/02/15 03:21:30;;;;;;;74.15;42.55;;;;;;;6.41;50.67;95552.94;4953979;29;20588;-73
2022/02/15 03:23:57;;;;;;;76.65;41.40;;;;;;;6.24;51.29;95557.88;4937437;29;20216;-70
2022/02/15 03:26:25;;;;;;;71.47;42.42;;;;;;;6.09;51.47;95549.59;4953252;29;20203;-72
2022/02/15 03:28:53;;;;;;;72.22;42.50;;;;;;;5.97;51.89;95566.88;4953182;29;20701;-77
2022/02/15 03:31:20;;;;;;;72.55;42.63;;;;;;;6.07;52.06;95569.81;4936098;29;20227;-77
2022/02/15 03:33:53;;;;;;;78.53;44.63;;;;;;;5.69;53.92;95561.22;4951783;28;20210;-76
2022/02/15 03:36:20;;;;;;;76.15;43.42;;;;;;;5.53;54.87;95570.28;4937076;29;20408;-75
2022/02/15 03:38:53;;;;;;;81.60;47.60;;;;;;;6.17;53.77;95554.53;4936984;29;20212;-77
2022/02/15 03:44:40;;;;;;;77.53;45.28;;;;;;;6.12;53.34;95549.16;4938815;29;20306;-77
2022/02/15 03:47:11;;;;;;;77.22;43.58;;;;;;;6.39;53.40;95573.97;4952585;29;20243;-71
2022/02/15 03:49:40;;;;;;;74.20;44.00;;;;;;;6.41;52.72;95560.75;4952232;29;20638;-76
2022/02/15 03:52:10;;;;;;;78.78;44.10;;;;;;;6.87;51.49;95567.13;4954113;29;20207;-75
2022/02/15 03:54:37;;;;;;;73.20;43.05;;;;;;;5.99;53.59;95570.06;4937267;29;20265;-75
2022/02/15 03:57:05;;;;;;;75.43;43.58;;;;;;;6.45;53.25;95575.72;4952657;29;20203;-72
2022/02/15 03:59:33;;;;;;;75.45;43.58;;;;;;;6.08;54.00;95581.81;4936333;29;20218;-76
2022/02/15 04:02:02;;;;;;;82.25;42.03;;;;;;;5.36;57.77;95568.38;4936562;29;20608;-79
2022/02/15 04:04:29;;;;;;;75.22;42.80;;;;;;;6.61;54.61;95564.78;4936855;29;20199;-78
2022/02/15 04:06:58;;;;;;;74.47;41.40;;;;;;;6.63;54.24;95577.56;4936144;29;20235;-75
2022/02/15 04:09:25;;;;;;;79.10;42.40;;;;;;;5.30;57.63;95579.59;4953284;29;20200;-76
2022/02/15 04:11:52;;;;;;;79.53;44.60;;;;;;;6.00;55.58;95574.28;4936380;29;20262;-73
2022/02/15 04:14:24;;;;;;;77.03;43.70;;;;;;;6.69;54.11;95561.91;4951667;29;20238;-71
2022/02/15 04:16:52;;;;;;;76.07;43.80;;;;;;;6.60;54.04;95573.59;4937016;29;20204;-74
2022/02/15 04:19:19;;;;;;;79.72;44.22;;;;;;;6.72;52.84;95524.19;4937188;29;20870;-80
2022/02/15 04:21:47;;;;;;;76.55;42.30;;;;;;;7.32;52.08;95572.06;4936985;29;20240;-76
2022/02/15 04:24:14;;;;;;;74.85;42.42;;;;;;;7.07;52.59;95562.50;4952573;29;20207;-75
2022/02/15 04:26:41;;;;;;;74.40;42.60;;;;;;;7.45;51.47;95562.25;4953409;29;21018;-73
2022/02/15 04:29:09;;;;;;;77.57;43.67;;;;;;;7.44;51.40;95568.50;4936489;29;20211;-78
2022/02/15 04:31:56;;;;;;;74.00;41.70;;;;;;;7.53;50.77;95558.56;4936714;29;20858;-75
2022/02/15 04:34:28;;;;;;;69.88;41.88;;;;;;;7.72;50.46;95567.97;4936292;29;20207;-71
2022/02/15 04:36:56;;;;;;;79.65;43.83;;;;;;;7.40;51.39;95569.16;4951376;29;20325;-75
2022/02/15 04:39:24;;;;;;;83.47;45.85;;;;;;;6.43;54.49;95582.97;4936008;29;20203;-73
2022/02/15 04:42:06;;;;;;;76.05;43.70;;;;;;;7.16;52.14;95576.84;4934693;29;20394;-74
2022/02/15 04:44:33;;;;;;;75.00;44.45;;;;;;;7.21;54.91;95575.41;4935334;28;20203;-73
2022/02/15 04:47:02;;;;;;;80.65;43.75;;;;;;;7.43;54.49;95579.94;4952122;29;20203;-75
2022/02/15 04:49:30;;;;;;;75.20;44.25;;;;;;;7.48;53.12;95571.47;4935390;29;20204;-76
2022/02/15 04:51:56;;;;;;;82.97;45.00;;;;;;;7.66;52.53;95585.28;4935009;29;20668;-78
2022/02/15 04:54:25;;;;;;;79.28;44.90;;;;;;;7.44;51.64;95565.09;4935234;29;20211;-76
2022/02/15 04:56:53;;;;;;;79.15;43.50;;;;;;;7.38;51.92;95560.75;4934900;29;20239;-75
2022/02/15 04:59:21;;;;;;;77.10;44.78;;;;;;;7.33;52.20;95568.44;4952243;29;20200;-73
2022/02/15 05:01:48;;;;;;;78.53;44.00;;;;;;;7.05;52.33;95530.66;4948935;28;20200;-78
2022/02/15 05:07:07;;;;;;;77.63;42.78;;;;;;;7.39;51.33;95583.22;4953077;28;20311;-75
2022/02/15 05:09:40;;;;;;;77.40;43.72;;;;;;;7.45;51.74;95579.72;4939414;28;20222;-73
2022/02/15 05:12:08;;;;;;;85.82;42.67;;;;;;;7.09;52.28;95578.72;4952649;28;20699;-75
2022/02/15 05:14:37;;;;;;;74.65;42.35;;;;;;;6.78;52.99;95572.84;4950559;28;20355;-77
2022/02/15 05:17:06;;;;;;;84.97;45.13;;;;;;;6.39;54.13;95576.56;4935507;29;20195;-72
2022/02/15 05:19:34;;;;;;;84.60;43.90;;;;;;;6.57;53.71;95558.41;4951483;29;20257;-74
2022/02/15 05:22:05;;;;;;;87.57;46.58;;;;;;;7.04;52.65;95586.38;4937472;29;20219;-73
2022/02/15 05:24:52;;;;;;;78.60;43.20;;;;;;;6.23;54.32;95561.50;4938393;29;20203;-71
2022/02/15 05:27:22;;;;;;;94.50;47.20;;;;;;;6.44;54.28;95592.34;4938972;29;20698;-74
2022/02/15 05:29:52;;;;;;;89.43;45.63;;;;;;;6.86;53.71;95598.63;4937039;29;20219;-75
2022/02/15 05:32:25;;;;;;;92.10;46.33;;;;;;;7.11;53.23;95601.97;4934440;29;20215;-73
2022/02/15 05:34:55;;;;;;;92.20;46.00;;;;;;;7.10;52.92;95601.16;4934227;29;20204;-77
2022/02/15 05:37:22;;;;;;;85.35;44.33;;;;;;;7.29;52.04;95607.19;4934504;29;20196;-75
2022/02/15 05:39:50;;;;;;;92.28;46.63;;;;;;;7.07;52.18;95588.56;4934257;29;20401;-74
2022/02/15 05:42:31;;;;;;;94.30;46.95;;;;;;;7.14;52.24;95588.50;4934188;29;20274;-77
2022/02/15 05:44:59;;;;;;;88.93;46.90;;;;;;;7.32;51.85;95598.16;4934479;29;20263;-76
2022/02/15 05:47:26;;;;;;;92.15;47.78;;;;;;;7.44;51.78;95604.22;4933682;29;20298;-78
2022/02/15 05:52:43;;;;;;;86.07;46.60;;;;;;;7.53;51.54;95616.75;4949510;29;20664;-68
2022/02/15 05:55:17;;;;;;;132.13;74.85;;;;;;;7.43;51.96;95626.06;4948990;29;20358;-70
2022/02/15 05:57:45;;;;;;;121.97;61.83;;;;;;;7.14;52.11;95617.97;4933414;29;20254;-79
2022/02/15 06:00:17;;;;;;;104.13;56.08;;;;;;;7.33;51.67;95612.75;4935859;29;20378;-77
2022/02/15 06:02:49;;;;;;;93.60;47.67;;;;;;;7.43;51.95;95631.28;4940504;29;20211;-78
2022/02/15 06:05:28;;;;;;;90.63;46.45;;;;;;;7.51;51.40;95638.81;4935346;29;20635;-77
2022/02/15 06:07:58;;;;;;;90.53;48.53;;;;;;;7.67;50.65;95633.00;4934567;29;20241;-80
2022/02/15 06:10:28;;;;;;;89.95;47.42;;;;;;;7.49;51.75;95627.81;4934418;29;20259;-76
2022/02/15 06:13:04;;;;;;;93.47;50.40;;;;;;;7.48;51.46;95623.63;4934192;29;20235;-74
2022/02/15 06:15:31;;;;;;;94.90;50.17;;;;;;;7.53;51.55;95598.47;4951307;29;20219;-76
2022/02/15 06:18:11;;;;;;;104.10;52.03;;;;;;;7.58;50.99;95608.25;4920484;29;20207;-76
2022/02/15 06:20:44;;;;;;;123.20;62.95;;;;;;;7.57;51.24;95633.53;4935000;29;20287;-73
2022/02/15 06:23:15;;;;;;;138.00;70.70;;;;;;;7.43;51.56;95636.50;4951464;29;20215;-76
2022/02/15 06:25:43;;;;;;;168.82;81.05;;;;;;;7.60;50.91;95637.50;4950009;29;20204;-78
2022/02/15 06:28:11;;;;;;;206.95;105.28;;;;;;;7.78;50.47;95637.50;4933989;29;20208;-77
2022/02/15 06:31:04;;;;;;;218.18;107.75;;;;;;;7.50;50.65;95632.03;4945970;29;20204;-78
2022/02/15 06:33:35;;;;;;;221.35;109.60;;;;;;;7.71;50.66;95645.41;4949364;29;20294;-75
2022/02/15 06:36:04;;;;;;;215.75;105.93;;;;;;;7.76;50.05;95647.34;4931985;29;20224;-74
2022/02/15 06:38:33;;;;;;;226.98;108.03;;;;;;;7.53;50.14;95628.97;4931397;29;20212;-76
2022/02/15 06:41:22;;;;;;;226.48;107.18;;;;;;;7.93;49.56;95643.13;4931731;29;20274;-75
2022/02/15 06:43:56;;;;;;;221.45;103.82;;;;;;;7.98;49.81;95641.44;4931834;29;20215;-79
2022/02/15 06:46:32;;;;;;;228.05;107.75;;;;;;;8.14;49.84;95651.28;4933216;29;20615;-77
2022/02/15 06:49:05;;;;;;;222.60;107.72;;;;;;;7.90;50.02;95646.19;4949497;29;20212;-74
2022/02/15 06:51:33;;;;;;;226.32;104.82;;;;;;;7.75;50.10;95656.19;4934058;29;20203;-75
2022/02/15 06:54:07;;;;;;;225.02;102.05;;;;;;;7.76;50.73;95661.19;4933371;29;20633;-76
2022/02/15 06:56:43;;;;;;;209.85;98.57;;;;;;;7.65;50.49;95640.25;4933504;29;20231;-75
2022/02/15 06:59:17;;;;;;;198.27;97.03;;;;;;;7.62;50.75;95625.06;4933190;29;20590;-77
2022/02/15 07:01:45;;;;;;;207.65;99.95;;;;;;;7.68;50.58;95651.03;4933617;29;20200;-79
2022/02/15 07:04:15;;;;;;;210.60;99.47;;;;;;;7.92;50.60;95662.41;4948997;29;20819;-78
2022/02/15 07:06:43;;;;;;;210.30;103.22;;;;;;;7.81;50.34;95665.78;4950705;29;20277;-76
2022/02/15 07:09:11;;;;;;;195.13;97.85;;;;;;;7.58;50.64;95655.19;4935782;29;20227;-74
2022/02/15 07:11:55;;;;;;;220.45;103.20;;;;;;;7.38;51.63;95665.03;4953142;29;20204;-74
2022/02/15 07:14:22;;;;;;;207.38;101.43;;;;;;;7.51;50.76;95665.69;4936696;29;20334;-76
2022/02/15 07:16:53;;;;;;;212.82;104.68;;;;;;;7.26;51.69;95656.34;4936883;29;20318;-74
2022/02/15 07:19:22;;;;;;;211.63;104.68;;;;;;;7.36;51.40;95667.06;4937324;29;20351;-74
2022/02/15 07:22:07;;;;;;;225.10;108.50;;;;;;;7.65;50.80;95671.56;4953074;29;20235;-75
2022/02/15 07:24:51;;;;;;;229.23;112.90;;;;;;;7.48;51.52;95660.13;4936598;29;20234;-78
2022/02/15 07:27:35;;;;;;;255.90;118.38;;;;;;;7.53;51.60;95655.06;4952680;29;20211;-77
2022/02/15 07:30:08;;;;;;;242.18;116.65;;;;;;;7.83;51.36;95640.22;4936889;29;20298;-79
2022/02/15 07:32:49;;;;;;;258.15;120.05;;;;;;;8.00;50.87;95654.28;4936943;29;20226;-78
2022/02/15 07:35:17;;;;;;;250.80;115.70;;;;;;;7.18;52.32;95633.97;4952353;29;20235;-74
2022/02/15 07:37:52;;;;;;;243.02;111.82;;;;;;;7.76;51.43;95652.56;4954028;29;20255;-71
2022/02/15 07:40:23;;;;;;;231.02;105.97;;;;;;;8.10;51.28;95649.34;4954000;29;20200;-74
2022/02/15 07:42:51;;;;;;;220.45;98.30;;;;;;;8.23;50.76;95649.13;4953613;29;20200;-73
2022/02/15 07:45:20;;;;;;;201.35;95.40;;;;;;;8.39;51.10;95659.00;4952004;29;20212;-73
2022/02/15 07:47:49;;;;;;;196.77;93.93;;;;;;;8.47;51.22;95656.06;4953394;29;20191;-73
2022/02/15 07:50:18;;;;;;;199.15;98.70;;;;;;;8.61;51.19;95654.84;4952880;29;20208;-73
2022/02/15 07:52:47;;;;;;;187.70;91.97;;;;;;;8.40;51.02;95652.75;4953372;29;20227;-73
2022/02/15 07:55:14;;;;;;;170.55;86.05;;;;;;;8.18;51.94;95641.19;4953265;29;20204;-74
2022/02/15 07:57:41;;;;;;;167.32;86.13;;;;;;;8.45;50.83;95652.88;4953444;29;20211;-73
2022/02/15 08:00:09;;;;;;;166.60;83.38;;;;;;;8.55;50.56;95653.13;4952668;29;20203;-73
2022/02/15 08:02:39;;;;;;;178.77;87.95;;;;;;;8.74;50.72;95640.78;4953076;29;20278;-72
2022/02/15 08:05:06;;;;;;;175.27;87.57;;;;;;;8.58;51.45;95642.22;4952894;29;20573;-73
2022/02/15 08:07:33;;;;;;;175.57;86.63;;;;;;;8.89;50.45;95636.72;4953213;29;20278;-72
2022/02/15 08:10:02;;;;;;;166.90;84.82;;;;;;;8.92;50.30;95654.53;4952855;29;20573;-73
2022/02/15 08:12:29;;;;;;;182.63;90.00;;;;;;;9.39;49.82;95651.94;4953703;29;20556;-73
2022/02/15 08:14:56;;;;;;;183.43;92.85;;;;;;;9.55;49.08;95654.63;4952893;29;20675;-73
2022/02/15 08:17:23;;;;;;;209.95;99.38;;;;;;;9.60;49.48;95661.81;4952000;29;20680;-74
2022/02/15 08:19:50;;;;;;;196.90;98.45;;;;;;;9.46;49.29;95661.25;4952050;28;20599;-73
2022/02/15 08:22:19;;;;;;;202.52;99.78;;;;;;;9.61;49.24;95647.69;4953036;29;20196;-75
2022/02/15 08:24:46;;;;;;;189.75;96.57;;;;;;;9.68;49.10;95643.13;4952243;29;20200;-74
2022/02/15 08:27:14;;;;;;;153.15;81.43;;;;;;;10.26;48.53;95648.97;4952949;29;20211;-73
2022/02/15 08:29:40;;;;;;;119.80;63.55;;;;;;;10.32;48.82;95650.69;4952330;29;20204;-73
2022/02/15 08:32:07;;;;;;;112.47;59.90;;;;;;;10.28;48.95;95638.28;4952637;29;20196;-73
2022/02/15 08:34:35;;;;;;;110.65;59.20;;;;;;;10.37;48.37;95637.66;4952064;29;20200;-73
2022/02/15 08:37:03;;;;;;;101.15;56.33;;;;;;;10.80;48.07;95648.34;4935291;29;20230;-73
2022/02/15 08:39:31;;;;;;;90.40;50.73;;;;;;;10.74;48.08;95604.75;4951952;29;20215;-72
2022/02/15 08:42:04;;;;;;;77.17;47.40;;;;;;;11.27;46.71;95627.00;4953194;29;20538;-72
2022/02/15 08:44:35;;;;;;;66.75;39.95;;;;;;;11.53;46.07;95623.69;4953519;29;20447;-72
2022/02/15 08:47:05;;;;;;;60.05;37.53;;;;;;;11.63;45.18;95613.31;4952534;29;20226;-73
2022/02/15 08:49:37;;;;;;;68.87;38.77;;;;;;;11.51;44.86;95623.94;4952198;29;20270;-73
2022/02/15 08:52:06;;;;;;;65.80;39.30;;;;;;;11.65;44.46;95619.94;4952306;29;20436;-72
2022/02/15 08:54:33;;;;;;;67.63;41.63;;;;;;;11.12;43.95;95604.78;4951438;29;20450;-72
2022/02/15 08:57:00;;;;;;;62.47;39.40;;;;;;;10.97;44.94;95622.91;4952605;29;20479;-72
2022/02/15 08:59:27;;;;;;;63.70;39.33;;;;;;;11.70;42.86;95611.34;4952257;29;20987;-73
2022/02/15 09:01:53;;;;;;;66.57;39.87;;;;;;;11.91;42.65;95602.66;4952127;29;20199;-74
2022/02/15 09:04:21;;;;;;;63.77;38.80;;;;;;;12.03;42.88;95616.44;4951779;29;20542;-73
2022/02/15 09:06:47;;;;;;;62.67;40.03;;;;;;;12.21;42.67;95614.28;4952206;29;20883;-74
2022/02/15 09:09:14;;;;;;;60.65;39.42;;;;;;;11.76;43.51;95623.50;4951600;29;20452;-72
2022/02/15 09:11:42;;;;;;;63.57;40.43;;;;;;;11.96;43.65;95613.22;4952440;29;20204;-74
2022/02/15 09:14:09;;;;;;;62.63;38.93;;;;;;;11.93;42.80;95611.09;4951535;29;20478;-72
2022/02/15 09:16:36;;;;;;;58.90;39.73;;;;;;;12.61;42.22;95616.50;4952149;29;20483;-70
2022/02/15 09:19:04;;;;;;;59.33;38.27;;;;;;;12.79;41.59;95612.72;4951698;29;20455;-73
2022/02/15 09:21:34;;;;;;;63.73;39.10;;;;;;;12.81;41.78;95592.97;4951597;29;21132;-73
2022/02/15 09:24:02;;;;;;;66.37;42.20;;;;;;;13.08;41.68;95604.25;4951794;29;20530;-73
2022/02/15 09:26:29;;;;;;;61.20;40.63;;;;;;;13.28;41.48;95608.06;4952941;29;20436;-72
2022/02/15 09:28:56;;;;;;;65.53;40.37;;;;;;;13.05;40.50;95578.47;4951390;29;20455;-73
2022/02/15 09:31:24;;;;;;;63.47;42.20;;;;;;;13.48;40.76;95573.97;4951886;28;20447;-74
2022/02/15 09:33:54;;;;;;;62.40;43.07;;;;;;;13.78;39.98;95571.44;4951127;29;21073;-72
2022/02/15 09:36:24;;;;;;;69.37;41.87;;;;;;;13.91;39.40;95590.19;4951705;29;20474;-73
2022/02/15 09:38:53;;;;;;;62.33;41.10;;;;;;;13.47;39.96;95564.47;4951755;29;20447;-72
2022/02/15 09:41:21;;;;;;;63.50;42.50;;;;;;;13.70;40.17;95585.13;4951535;29;20543;-72
2022/02/15 09:43:48;;;;;;;65.27;41.90;;;;;;;14.09;38.99;95573.09;4951034;29;20483;-73
2022/02/15 09:46:16;;;;;;;66.53;42.20;;;;;;;14.23;39.28;95579.47;4951702;29;20436;-72
2022/02/15 09:48:44;;;;;;;73.47;43.73;;;;;;;14.45;39.25;95568.72;4951445;29;20447;-73
2022/02/15 09:51:13;;;;;;;67.00;43.03;;;;;;;14.98;38.19;95547.84;4951517;29;20436;-72
2022/02/15 09:53:40;;;;;;;66.13;43.03;;;;;;;15.13;37.74;95552.31;4951030;29;20451;-72
2022/02/15 09:56:07;;;;;;;69.30;42.17;;;;;;;15.32;37.62;95555.16;4951507;29;20974;-71
2022/02/15 09:58:34;;;;;;;68.27;43.70;;;;;;;15.71;36.95;95545.56;4951045;29;20443;-74
2022/02/15 10:01:04;;;;;;;58.10;38.83;;;;;;;14.93;35.88;95547.06;4951371;29;20525;-72
2022/02/15 10:03:32;;;;;;;53.80;35.50;;;;;;;14.93;36.46;95537.31;4950904;29;20443;-70
2022/02/15 10:06:02;;;;;;;55.63;33.80;;;;;;;15.21;36.10;95528.81;4951723;29;20475;-72
2022/02/15 10:08:31;;;;;;;50.73;33.83;;;;;;;15.50;36.48;95525.56;4951135;29;20423;-73
2022/02/15 10:11:13;;;;;;;54.33;36.43;;;;;;;15.14;37.06;95523.00;4951501;29;20475;-71
2022/02/15 10:13:42;;;;;;;52.03;32.07;;;;;;;15.65;36.30;95528.16;4950690;29;20645;-71
2022/02/15 10:16:09;;;;;;;45.43;30.97;;;;;;;15.66;36.01;95524.44;4950966;29;20455;-72
2022/02/15 10:18:37;;;;;;;36.93;27.10;;;;;;;15.78;35.72;95523.03;4950691;29;21365;-72
2022/02/15 10:21:05;;;;;;;39.00;25.53;;;;;;;15.71;34.51;95506.69;4951458;29;20875;-71
2022/02/15 10:23:36;;;;;;;54.67;34.53;;;;;;;15.96;35.19;95508.44;4950952;29;20542;-72
2022/02/15 10:26:07;;;;;;;45.20;33.03;;;;;;;16.08;36.01;95511.50;4951121;29;20538;-73
2022/02/15 10:28:34;;;;;;;39.70;28.17;;;;;;;15.85;35.33;95506.91;4950572;29;20562;-72
2022/02/15 10:31:03;;;;;;;42.13;27.30;;;;;;;14.98;35.14;95507.50;4951148;29;20444;-71
2022/02/15 10:33:45;;;;;;;34.57;26.13;;;;;;;15.22;35.48;95501.34;4950958;29;20440;-72
2022/02/15 10:36:15;;;;;;;40.33;25.40;;;;;;;15.69;35.03;95497.47;4951171;29;21026;-73
2022/02/15 10:38:53;;;;;;;30.27;23.00;;;;;;;15.42;34.46;95491.81;4949307;29;20603;-71
2022/02/15 10:41:25;;;;;;;27.23;19.77;;;;;;;15.67;34.35;95502.25;4950909;29;21067;-70
2022/02/15 10:43:57;;;;;;;27.50;20.83;;;;;;;15.85;32.30;95493.69;4952033;28;20520;-71
2022/02/15 10:46:28;;;;;;;26.47;20.43;;;;;;;15.93;34.20;95493.91;4955070;29;20435;-74
2022/02/15 10:48:56;;;;;;;28.43;20.63;;;;;;;16.22;33.33;95475.47;4954818;29;20470;-72
2022/02/15 10:51:25;;;;;;;30.53;21.87;;;;;;;16.19;33.69;95471.53;4955250;29;20447;-72
2022/02/15 10:53:56;;;;;;;30.63;21.37;;;;;;;16.15;33.77;95459.91;4954295;29;20439;-71
2022/02/15 10:56:31;;;;;;;31.97;21.33;;;;;;;16.29;33.60;95464.56;4954529;29;20436;-73
2022/02/15 10:59:02;;;;;;;32.83;24.37;;;;;;;16.41;33.59;95457.84;4954450;29;20447;-73
2022/02/15 11:01:32;;;;;;;37.33;24.03;;;;;;;16.70;34.10;95452.59;4954879;29;20546;-74
2022/02/15 11:04:01;;;;;;;29.57;22.27;;;;;;;16.49;33.63;95459.94;4953845;29;20446;-73
2022/02/15 11:06:28;;;;;;;28.80;21.77;;;;;;;16.10;33.75;95456.50;4954837;29;20443;-73
2022/02/15 11:09:00;;;;;;;28.83;22.00;;;;;;;16.30;33.59;95447.63;4954148;29;20445;-75
2022/02/15 11:11:53;;;;;;;24.83;18.07;;;;;;;15.89;32.09;95449.81;4954325;29;20499;-72
2022/02/15 11:14:20;;;;;;;21.53;15.83;;;;;;;15.71;32.93;95442.53;4952697;29;20574;-72
2022/02/15 11:16:51;;;;;;;23.63;18.20;;;;;;;16.16;32.66;95439.56;4954197;29;20483;-73
2022/02/15 11:19:20;;;;;;;18.43;14.60;;;;;;;15.57;33.24;95437.03;4953577;29;20565;-72
2022/02/15 11:21:54;;;;;;;21.90;16.50;;;;;;;16.37;32.54;95427.72;4954559;29;20459;-74
2022/02/15 11:24:21;;;;;;;24.93;17.30;;;;;;;15.83;32.47;95429.75;4953816;29;20449;-73
2022/02/15 11:26:48;;;;;;;22.97;17.20;;;;;;;15.76;32.48;95424.00;4954266;29;20941;-73
2022/02/15 11:29:23;;;;;;;27.37;17.27;;;;;;;15.22;32.95;95408.94;4953974;29;20448;-72
2022/02/15 11:31:53;;;;;;;32.33;18.80;;;;;;;16.04;32.26;95405.53;4954476;29;20443;-73
2022/02/15 11:34:34;;;;;;;26.10;17.57;;;;;;;15.07;33.28;95414.28;4957504;29;20840;-71
2022/02/15 11:37:01;;;;;;;29.97;19.33;;;;;;;15.67;33.18;95407.13;4958184;29;20518;-73
2022/02/15 11:39:41;;;;;;;29.93;19.73;;;;;;;16.23;33.92;95416.22;4956163;29;20432;-72